Página principal
METAR-TAF:

METAR-TAF

Aeroportos :

Aeroporto Internacional de Wattay

Vientiane, Laos

latitude: 17-57N, longitude: 102-34E, altura: 171 m

Observação actual do tempo

O boletim foi feito há 1 hora e 14 minutos, às 16:30 UTC
Vento calmo
Temperatura 24°C
Humidade 94%
Pressão 1009 hPa
Visibilidade: 4000 m
Poucas nuvensa uma altura de 5000 ft
neblina

METAR: VLVT 201630Z 00000KT 4000 BR FEW050 24/23 Q1009 NOSIG

Hora: 00:44 (17:44 UTC)

Previsão

O boletim foi feito há 44 minutos, às 17:00 UTC
Previsão válida de 20 às 18 UTC a 21 às 18 UTC
Vento 4 kt de oeste
Visibilidade: 6000 m
Nuvens dispersasa uma altura de 2000 ft
Temporariamente
de 20 às 18 UTC a 20 às 22 UTC
Visibilidade: 3000 m
Poucas nuvensa uma altura de 5000 ft
neblina

TAF: VLVT 201700Z 2018/2118 27004KT 6000 SCT020 TEMPO 2018/2022 3000 BR FEW050

Observações e previsões do tempo de mais de 4000 aeroportos (mensagens METAR e TAF).

As estações disponíveis são os pontos amarelos e vermelhos sobre o mapa.

Mova o rato sobre o mapa para ver o nome da estação.

Depois clique no ponto para visualizar as observações e previsões meteorológicas.

Para alterar o mapa : clique nos botões verdes com uma cruz preta para aumentar o zoom; no botão verde com uma pitada de zoom; ou nas setas verdes para mapas adjacentes.


METAR-TAF: